KDIK/DIK METAR and TAF weather

Enter ICAO airport designator
Station Type Date Time Source
KDIK METAR 2022/12/05 13:56 UTC NOAA

KDIK 051356Z AUTO 32005KT 8SM -SN SCT019 BKN035 OVC070 M08/M10 A2987 RMK AO2 SLP154 P0000 T10831100


Station Type Date Time Source
KDIK Decoded METAR 2022/12/05 13:56 UTC NOAA

THEODORE ROOSEVELT REGIONAL, ND, United States (KDIK) 46-48N 102-48W 788M
Dec 05, 2022 - 08:56 AM EST / 2022.12.05 1356 UTC
Wind: from the NW (320 degrees) at 6 MPH (5 KT):0
Visibility: 8 mile(s):0
Sky conditions: overcast
Weather: light snow
Precipitation last hour: A trace
Temperature: 17.1 F (-8.3 C)
Windchill: 8 F (-13 C):1
Dew Point: 14.0 F (-10.0 C)
Relative Humidity: 87%
Pressure (altimeter): 29.87 in. Hg (1011 hPa)
ob: KDIK 051356Z AUTO 32005KT 8SM -SN SCT019 BKN035 OVC070 M08/M10 A2987 RMK AO2 SLP154 P0000 T10831100
cycle: 14

Station Type Date Time Source
KDIK TAF 2022/12/05 12:27 UTC NOAA

TAF KDIK 051124Z 0512/0612 29007KT P6SM OVC150
FM052200 VRB05KT P6SM BKN035
FM060300 15011KT 1SM -SN BR OVC015
FM060700 18012KT P6SM OVC015 WS020/25035KT

Example: see airport list